createdAt,value
2018-11-07T16:37:08.365Z,96865.00
2018-11-07T16:37:50.924Z,96871.65
2018-11-07T16:38:33.487Z,96873.05
2018-11-07T16:48:52.865Z,96870.25
2018-11-07T17:04:12.817Z,96898.86
2018-11-07T17:14:31.712Z,96915.16
2018-11-07T17:24:50.646Z,96933.52
2018-11-07T17:35:11.350Z,96933.00
2018-11-07T17:45:29.886Z,96947.07
2018-11-07T17:55:48.430Z,96954.47
2018-11-07T18:06:07.267Z,96964.94
2018-11-07T18:16:26.189Z,96975.75
2018-11-07T18:26:44.829Z,96982.99
2018-11-07T18:37:04.591Z,96980.12
2018-11-07T18:47:23.167Z,96997.35
2018-11-07T18:57:42.802Z,97001.84
2018-11-07T19:08:01.766Z,97004.25
2018-11-07T19:18:20.405Z,97015.50
2018-11-07T19:28:40.174Z,97021.06
2018-11-07T19:39:00.063Z,97022.62
2018-11-07T19:49:19.572Z,97032.55
2018-11-07T19:59:39.447Z,97038.00
2018-11-07T20:09:58.076Z,97040.12
2018-11-07T20:20:17.462Z,97048.88
2018-11-07T20:30:36.166Z,97056.81
2018-11-07T20:40:54.942Z,97058.34
2018-11-07T20:51:14.059Z,97074.86
2018-11-07T21:01:32.922Z,97083.12
2018-11-07T21:11:51.607Z,97077.83
2018-11-07T21:22:11.502Z,97097.34
2018-11-07T21:32:30.389Z,97104.27
2018-11-07T21:42:49.733Z,97095.58
2018-11-07T21:53:08.826Z,97111.81
2018-11-07T22:03:28.047Z,97126.13
2018-11-07T22:13:47.031Z,97139.65
2018-11-07T22:24:05.969Z,97148.30
2018-11-07T22:34:24.492Z,97152.83
2018-11-07T22:44:43.208Z,97160.89
2018-11-07T22:55:01.751Z,97173.83
2018-11-07T23:05:20.523Z,97180.63
2018-11-07T23:15:49.196Z,97186.05
2018-11-07T23:26:08.111Z,97205.60
2018-11-07T23:36:26.833Z,97201.98
2018-11-07T23:46:45.568Z,97203.77
2018-11-07T23:57:04.493Z,97215.34
